createdAt,value
2024-02-27T00:00:11.976Z,45.35
2024-02-27T00:02:39.132Z,43.00
2024-02-27T00:05:06.007Z,44.22
2024-02-27T00:07:32.443Z,37.72
2024-02-27T00:09:59.821Z,43.78
2024-02-27T00:12:27.164Z,40.28
2024-02-27T00:14:54.532Z,42.15
2024-02-27T00:17:21.960Z,40.40
2024-02-27T00:19:48.577Z,40.88
2024-02-27T00:22:16.290Z,44.13
2024-02-27T00:24:42.795Z,41.85
2024-02-27T00:27:09.338Z,44.58
2024-02-27T00:29:35.886Z,44.08
2024-02-27T00:32:02.347Z,39.53
2024-02-27T00:34:29.249Z,44.22
2024-02-27T00:36:55.766Z,39.40
2024-02-27T00:39:23.035Z,44.53
2024-02-27T00:41:50.835Z,45.30
2024-02-27T00:44:17.303Z,40.17
2024-02-27T00:46:44.552Z,38.60
2024-02-27T00:49:11.216Z,44.22
2024-02-27T00:51:37.924Z,44.00
2024-02-27T00:54:04.428Z,43.67
2024-02-27T00:56:30.924Z,45.10
2024-02-27T00:58:57.385Z,42.45
2024-02-27T01:01:23.920Z,42.72
2024-02-27T01:03:50.637Z,45.88
2024-02-27T01:06:17.384Z,45.40
2024-02-27T01:08:43.877Z,46.47
2024-02-27T01:11:10.420Z,43.00
2024-02-27T01:13:37.022Z,42.38
2024-02-27T01:16:04.371Z,41.97
2024-02-27T01:18:31.024Z,43.47
2024-02-27T01:20:57.625Z,47.05
2024-02-27T01:23:24.123Z,43.30
2024-02-27T01:25:50.560Z,43.72
2024-02-27T01:28:17.008Z,37.78
2024-02-27T01:30:43.563Z,42.60
2024-02-27T01:33:10.263Z,36.25
2024-02-27T01:35:36.784Z,45.30
2024-02-27T01:38:03.682Z,46.72
2024-02-27T01:40:30.125Z,42.08
2024-02-27T01:42:56.567Z,41.35
2024-02-27T01:45:23.625Z,41.85
2024-02-27T01:47:51.285Z,39.30
2024-02-27T01:50:18.553Z,42.38
2024-02-27T01:52:46.656Z,45.83
2024-02-27T01:55:13.861Z,42.85
2024-02-27T01:57:40.866Z,47.05
2024-02-27T02:00:10.681Z,40.40
2024-02-27T02:02:38.805Z,45.25
2024-02-27T02:05:08.620Z,42.95
2024-02-27T02:07:36.472Z,44.47
2024-02-27T02:10:03.014Z,43.42
2024-02-27T02:12:29.497Z,41.22
2024-02-27T02:14:56.271Z,42.08
2024-02-27T02:17:22.716Z,44.05
2024-02-27T02:19:49.276Z,40.30
2024-02-27T02:22:15.697Z,41.70
2024-02-27T02:24:42.268Z,47.90
2024-02-27T02:27:10.255Z,41.33
2024-02-27T02:29:36.689Z,39.53
2024-02-27T02:32:04.364Z,41.20
2024-02-27T02:34:30.851Z,43.60
2024-02-27T02:36:57.301Z,44.53
2024-02-27T02:39:23.857Z,45.25
2024-02-27T02:41:50.290Z,40.92
2024-02-27T02:44:16.749Z,40.00
2024-02-27T02:46:44.126Z,36.72
2024-02-27T02:49:10.863Z,37.63
2024-02-27T02:51:37.563Z,41.80
2024-02-27T02:54:04.114Z,42.33
2024-02-27T02:56:30.614Z,43.17
2024-02-27T02:58:57.015Z,40.33
2024-02-27T03:01:23.487Z,40.13
2024-02-27T03:03:50.010Z,43.78
2024-02-27T03:06:17.190Z,40.92
2024-02-27T03:08:43.671Z,40.08
2024-02-27T03:11:10.117Z,40.10
2024-02-27T03:13:36.642Z,41.00
2024-02-27T03:16:03.224Z,42.47
2024-02-27T03:18:29.889Z,41.50
2024-02-27T03:20:56.497Z,41.50
2024-02-27T03:23:22.968Z,44.42
2024-02-27T03:25:49.460Z,39.92
2024-02-27T03:28:15.869Z,40.17
2024-02-27T03:30:42.485Z,41.00
2024-02-27T03:33:09.109Z,42.42
2024-02-27T03:35:37.297Z,44.03
2024-02-27T03:38:04.606Z,48.03
2024-02-27T03:40:31.117Z,46.10
2024-02-27T03:42:57.598Z,45.78
2024-02-27T03:45:24.328Z,41.72
2024-02-27T03:47:50.942Z,43.75
2024-02-27T03:50:17.353Z,39.72
2024-02-27T03:52:44.104Z,40.65
2024-02-27T03:55:10.688Z,39.67
2024-02-27T03:57:37.171Z,46.22
2024-02-27T04:00:05.149Z,42.97
2024-02-27T04:02:31.600Z,41.08
2024-02-27T04:04:58.118Z,43.13
2024-02-27T04:07:24.640Z,40.90
2024-02-27T04:09:51.080Z,44.53
2024-02-27T04:12:17.535Z,44.17
2024-02-27T04:14:44.397Z,43.53
2024-02-27T04:17:10.834Z,40.65
2024-02-27T04:19:37.400Z,39.65
2024-02-27T04:22:03.946Z,46.53
2024-02-27T04:24:30.495Z,37.45
2024-02-27T04:26:57.245Z,46.22
2024-02-27T04:29:23.809Z,44.55
2024-02-27T04:31:50.212Z,41.63
2024-02-27T04:34:16.785Z,45.05
2024-02-27T04:36:48.147Z,44.58
2024-02-27T04:39:15.406Z,40.15
2024-02-27T04:41:41.964Z,40.25
2024-02-27T04:44:11.773Z,40.92
2024-02-27T04:46:38.193Z,43.53
2024-02-27T04:49:05.200Z,44.38
2024-02-27T04:51:31.757Z,44.50
2024-02-27T04:53:58.598Z,43.03
2024-02-27T04:56:25.085Z,43.75
2024-02-27T04:58:51.519Z,44.33
2024-02-27T05:01:18.057Z,44.03
2024-02-27T05:03:44.744Z,40.92
2024-02-27T05:06:11.323Z,40.83
2024-02-27T05:08:37.814Z,48.85
2024-02-27T05:11:04.420Z,47.67
2024-02-27T05:13:30.850Z,44.85
2024-02-27T05:15:57.275Z,44.15
2024-02-27T05:18:23.783Z,42.45
2024-02-27T05:20:50.309Z,43.25
2024-02-27T05:23:16.865Z,47.22
2024-02-27T05:25:43.314Z,47.80
2024-02-27T05:28:10.357Z,46.03
2024-02-27T05:30:36.827Z,48.58
2024-02-27T05:33:04.722Z,45.13
2024-02-27T05:35:31.427Z,49.42
2024-02-27T05:37:57.913Z,46.05
2024-02-27T05:40:24.357Z,47.47
2024-02-27T05:42:51.036Z,50.63
2024-02-27T05:45:17.507Z,46.85
2024-02-27T05:47:44.623Z,47.97
2024-02-27T05:50:11.353Z,45.90
2024-02-27T05:52:38.541Z,50.72
2024-02-27T05:55:05.158Z,42.63
2024-02-27T05:57:31.650Z,46.38
2024-02-27T05:59:58.114Z,42.17
2024-02-27T06:02:24.559Z,46.03
2024-02-27T06:04:51.069Z,48.00
2024-02-27T06:07:17.801Z,49.83
2024-02-27T06:09:44.384Z,45.28
2024-02-27T06:12:11.186Z,47.33
2024-02-27T06:14:37.703Z,49.58
2024-02-27T06:17:04.416Z,46.13
2024-02-27T06:19:31.973Z,46.65
2024-02-27T06:22:20.224Z,48.72
2024-02-27T06:24:46.861Z,44.90
2024-02-27T06:27:13.703Z,44.50
2024-02-27T06:29:40.150Z,45.65
2024-02-27T06:32:12.016Z,50.25
2024-02-27T06:37:05.748Z,47.28
2024-02-27T06:39:32.244Z,45.08
2024-02-27T06:41:59.094Z,45.10
2024-02-27T06:44:26.112Z,43.90
2024-02-27T06:46:52.556Z,47.08
2024-02-27T06:49:22.954Z,47.22
2024-02-27T06:51:50.290Z,48.20
2024-02-27T06:54:16.822Z,45.38
2024-02-27T06:56:43.342Z,46.60
2024-02-27T06:59:10.404Z,50.33
2024-02-27T07:01:36.951Z,54.22
2024-02-27T07:04:03.509Z,46.20
2024-02-27T07:06:30.052Z,44.70
2024-02-27T07:08:56.636Z,47.97
2024-02-27T07:11:23.210Z,48.05
2024-02-27T07:13:49.663Z,51.78
2024-02-27T07:16:16.097Z,51.58
2024-02-27T07:18:42.740Z,50.15
2024-02-27T07:21:09.248Z,50.22
2024-02-27T07:23:35.763Z,51.38
2024-02-27T07:26:02.172Z,50.85
2024-02-27T07:28:32.960Z,51.33
2024-02-27T07:31:00.236Z,50.95
2024-02-27T07:33:26.885Z,51.47
2024-02-27T07:35:53.496Z,45.85
2024-02-27T07:38:19.958Z,46.10
2024-02-27T07:40:46.401Z,47.25
2024-02-27T07:43:12.851Z,45.47
2024-02-27T07:45:39.370Z,50.35
2024-02-27T07:48:06.159Z,46.28
2024-02-27T07:50:34.098Z,43.17
2024-02-27T07:53:00.776Z,42.70
2024-02-27T07:55:27.416Z,48.58
2024-02-27T07:57:53.902Z,45.60
2024-02-27T08:00:20.680Z,42.20
2024-02-27T08:02:47.534Z,41.95
2024-02-27T08:05:13.978Z,42.58
2024-02-27T08:07:40.451Z,44.33
2024-02-27T08:10:07.465Z,40.40
2024-02-27T08:12:34.356Z,42.90
2024-02-27T08:15:00.993Z,45.83
2024-02-27T08:17:27.614Z,47.03
2024-02-27T08:19:54.198Z,46.28
2024-02-27T08:22:20.659Z,43.83
2024-02-27T08:24:47.288Z,39.65
2024-02-27T08:27:13.931Z,40.75
2024-02-27T08:29:40.367Z,35.92
2024-02-27T08:32:06.892Z,42.10
2024-02-27T08:34:33.997Z,43.63
2024-02-27T08:37:00.624Z,40.60
2024-02-27T08:39:28.115Z,39.60
2024-02-27T08:41:54.575Z,40.58
2024-02-27T08:44:21.016Z,41.87
2024-02-27T08:46:47.487Z,42.47
2024-02-27T08:49:15.104Z,43.05
2024-02-27T08:51:41.956Z,42.92
2024-02-27T08:54:08.557Z,40.95
2024-02-27T08:56:35.849Z,36.13
2024-02-27T08:59:02.273Z,36.08
2024-02-27T09:01:28.759Z,35.58
2024-02-27T09:03:55.407Z,38.75
2024-02-27T09:06:22.059Z,41.65
2024-02-27T09:08:48.613Z,41.90
2024-02-27T09:11:15.134Z,41.95
2024-02-27T09:13:41.616Z,42.45
2024-02-27T09:16:08.184Z,38.42
2024-02-27T09:18:35.781Z,38.33
2024-02-27T09:21:02.617Z,43.83
2024-02-27T09:23:29.110Z,36.38
2024-02-27T09:25:55.611Z,38.45
2024-02-27T09:28:22.035Z,38.00
2024-02-27T09:30:48.522Z,42.53
2024-02-27T09:33:15.483Z,41.40
2024-02-27T09:35:43.986Z,35.22
2024-02-27T09:38:10.454Z,40.40
2024-02-27T09:40:37.006Z,37.90
2024-02-27T09:43:04.039Z,36.55
2024-02-27T09:45:31.896Z,39.20
2024-02-27T09:47:59.315Z,38.40
2024-02-27T09:50:26.974Z,38.80
2024-02-27T09:52:54.438Z,35.45
2024-02-27T09:55:21.691Z,35.30
2024-02-27T09:57:49.341Z,38.13
2024-02-27T10:00:20.812Z,36.53
2024-02-27T10:02:50.208Z,36.05
2024-02-27T10:05:19.100Z,32.22
2024-02-27T10:07:49.915Z,31.40
2024-02-27T10:10:17.444Z,32.65
2024-02-27T10:12:44.518Z,33.38
2024-02-27T10:15:11.543Z,33.88
2024-02-27T10:17:39.347Z,30.00
2024-02-27T10:20:11.628Z,33.90
2024-02-27T10:22:42.222Z,31.38
2024-02-27T10:25:16.202Z,29.90
2024-02-27T10:27:43.679Z,33.60
2024-02-27T10:30:11.855Z,30.02
2024-02-27T10:32:42.085Z,27.05
2024-02-27T10:35:10.017Z,28.88
2024-02-27T10:37:37.233Z,27.08
2024-02-27T10:40:07.606Z,29.33
2024-02-27T10:42:34.263Z,25.65
2024-02-27T10:45:01.370Z,24.35
2024-02-27T10:47:28.432Z,25.48
2024-02-27T10:49:55.348Z,23.85
2024-02-27T10:52:27.477Z,27.25
2024-02-27T10:54:54.617Z,24.17
2024-02-27T10:57:21.196Z,23.40
2024-02-27T10:59:48.073Z,23.38
2024-02-27T11:02:20.992Z,24.38
2024-02-27T11:04:48.572Z,22.77
2024-02-27T11:07:19.052Z,23.48
2024-02-27T11:09:46.464Z,21.40
2024-02-27T11:12:17.889Z,23.40
2024-02-27T11:14:50.303Z,21.70
2024-02-27T11:17:21.581Z,23.83
2024-02-27T11:19:50.124Z,25.17
2024-02-27T11:22:23.882Z,25.15
2024-02-27T11:24:50.536Z,27.10
2024-02-27T11:27:19.794Z,20.73
2024-02-27T11:29:46.756Z,21.27
2024-02-27T11:32:13.895Z,22.70
2024-02-27T11:34:43.955Z,20.58
2024-02-27T11:37:14.519Z,17.38
2024-02-27T11:39:41.483Z,24.10
2024-02-27T11:42:37.811Z,20.45
2024-02-27T11:45:05.613Z,19.88
2024-02-27T11:47:37.975Z,19.88
2024-02-27T11:50:07.343Z,19.15
2024-02-27T11:52:36.836Z,20.65
2024-02-27T11:55:07.465Z,20.50
2024-02-27T11:57:36.126Z,16.63
2024-02-27T12:00:10.038Z,16.70
2024-02-27T12:02:38.138Z,15.75
2024-02-27T12:05:08.897Z,16.10
2024-02-27T12:07:35.945Z,19.15
2024-02-27T12:10:13.064Z,16.88
2024-02-27T12:12:40.793Z,19.48
2024-02-27T12:15:08.642Z,19.25
2024-02-27T12:17:37.292Z,18.42
2024-02-27T12:20:06.860Z,20.65
2024-02-27T12:22:37.614Z,20.02
2024-02-27T12:25:04.826Z,18.05
2024-02-27T12:27:32.981Z,20.45
2024-02-27T12:30:01.427Z,20.63
2024-02-27T12:32:29.183Z,19.45
2024-02-27T12:34:55.641Z,23.05
2024-02-27T12:37:22.105Z,18.83
2024-02-27T12:39:48.870Z,18.42
2024-02-27T12:42:16.102Z,19.65
2024-02-27T12:44:46.585Z,19.77
2024-02-27T12:47:12.996Z,18.17
2024-02-27T12:49:39.534Z,18.92
2024-02-27T12:52:16.324Z,17.80
2024-02-27T12:54:44.017Z,17.05
2024-02-27T12:57:11.008Z,18.10
2024-02-27T12:59:39.934Z,17.27
2024-02-27T13:02:07.632Z,18.80
2024-02-27T13:04:35.869Z,17.38
2024-02-27T13:07:02.511Z,19.15
2024-02-27T13:09:29.937Z,19.70
2024-02-27T13:12:08.121Z,16.33
2024-02-27T13:14:34.878Z,21.52
2024-02-27T13:17:01.494Z,17.63
2024-02-27T13:19:28.073Z,18.98
2024-02-27T13:21:56.622Z,18.40
2024-02-27T13:24:23.288Z,20.85
2024-02-27T13:26:49.771Z,18.83
2024-02-27T13:29:16.179Z,20.02
2024-02-27T13:31:42.769Z,16.50
2024-02-27T13:34:09.488Z,18.73
2024-02-27T13:36:36.043Z,18.65
2024-02-27T13:39:04.760Z,18.80
2024-02-27T13:41:31.403Z,18.75
2024-02-27T13:43:57.862Z,20.35
2024-02-27T13:46:24.306Z,19.73
2024-02-27T13:48:50.741Z,18.15
2024-02-27T13:51:17.887Z,21.98
2024-02-27T13:53:44.534Z,23.30
2024-02-27T13:56:10.978Z,18.30
2024-02-27T13:58:37.980Z,16.75
2024-02-27T14:01:04.809Z,14.68
2024-02-27T14:03:33.325Z,14.23
2024-02-27T14:06:00.372Z,16.17
2024-02-27T14:08:26.871Z,14.38
2024-02-27T14:10:55.383Z,14.10
2024-02-27T14:13:22.911Z,12.65
2024-02-27T14:15:49.777Z,12.50
2024-02-27T14:18:16.346Z,12.82
2024-02-27T14:20:42.853Z,16.25
2024-02-27T14:23:09.302Z,13.38
2024-02-27T14:25:38.033Z,12.55
2024-02-27T14:28:05.031Z,13.70
2024-02-27T14:30:31.493Z,12.45
2024-02-27T14:32:57.992Z,13.35
2024-02-27T14:35:24.458Z,12.85
2024-02-27T14:37:50.910Z,13.98
2024-02-27T14:40:17.839Z,14.07
2024-02-27T14:42:45.869Z,12.38
2024-02-27T14:45:12.403Z,12.88
2024-02-27T14:47:38.857Z,11.90
2024-02-27T14:50:05.707Z,12.82
2024-02-27T14:52:32.181Z,12.82
2024-02-27T14:55:03.359Z,15.23
2024-02-27T14:57:30.542Z,13.67
2024-02-27T14:59:57.009Z,13.13
2024-02-27T15:02:23.453Z,15.98
2024-02-27T15:04:50.757Z,12.25
2024-02-27T15:07:17.371Z,12.98
2024-02-27T15:09:43.918Z,14.73
2024-02-27T15:12:10.498Z,11.35
2024-02-27T15:14:37.019Z,14.73
2024-02-27T15:17:03.493Z,13.90
2024-02-27T15:19:30.196Z,14.50
2024-02-27T15:21:56.943Z,15.35
2024-02-27T15:24:23.431Z,18.70
2024-02-27T15:26:50.137Z,15.57
2024-02-27T15:29:17.669Z,17.60
2024-02-27T15:31:44.549Z,16.55
2024-02-27T15:34:11.191Z,17.52
2024-02-27T15:36:37.781Z,18.10
2024-02-27T15:39:07.477Z,19.95
2024-02-27T15:41:33.984Z,17.77
2024-02-27T15:44:08.028Z,18.83
2024-02-27T15:46:38.757Z,17.65
2024-02-27T15:49:05.854Z,18.45
2024-02-27T15:51:32.494Z,18.65
2024-02-27T15:53:58.970Z,18.38
2024-02-27T15:56:25.390Z,17.77
2024-02-27T15:58:51.851Z,19.23
2024-02-27T16:01:18.542Z,19.15
2024-02-27T16:04:07.086Z,17.83
2024-02-27T16:06:40.604Z,17.80
2024-02-27T16:09:07.169Z,17.77
2024-02-27T16:11:33.645Z,17.75
2024-02-27T16:14:00.110Z,18.33
2024-02-27T16:16:26.594Z,17.55
2024-02-27T16:18:54.545Z,22.83
2024-02-27T16:21:21.509Z,20.00
2024-02-27T16:23:47.982Z,20.25
2024-02-27T16:26:14.447Z,22.17
2024-02-27T16:28:40.988Z,20.27
2024-02-27T16:31:07.841Z,19.30
2024-02-27T16:33:34.461Z,18.70
2024-02-27T16:36:00.956Z,17.55
2024-02-27T16:38:27.393Z,18.98
2024-02-27T16:40:53.806Z,22.15
2024-02-27T16:43:20.776Z,20.00
2024-02-27T16:45:48.961Z,19.23
2024-02-27T16:48:15.635Z,22.55
2024-02-27T16:50:42.229Z,23.45
2024-02-27T16:53:08.708Z,20.90
2024-02-27T16:55:37.088Z,17.65
2024-02-27T16:58:04.193Z,22.65
2024-02-27T17:00:30.758Z,20.88
2024-02-27T17:02:57.198Z,23.42
2024-02-27T17:05:23.624Z,22.38
2024-02-27T17:07:50.040Z,24.52
2024-02-27T17:10:16.538Z,21.80
2024-02-27T17:12:43.425Z,27.30
2024-02-27T17:15:10.704Z,27.30
2024-02-27T17:17:37.320Z,27.58
2024-02-27T17:20:04.030Z,25.98
2024-02-27T17:22:30.505Z,27.95
2024-02-27T17:24:56.974Z,30.55
2024-02-27T17:27:23.451Z,26.58
2024-02-27T17:29:51.451Z,30.92
2024-02-27T17:32:17.862Z,32.03
2024-02-27T17:34:44.444Z,28.90
2024-02-27T17:37:11.526Z,29.52
2024-02-27T17:39:38.024Z,32.00
2024-02-27T17:42:04.898Z,35.58
2024-02-27T17:44:31.461Z,30.65
2024-02-27T17:46:57.863Z,37.08
2024-02-27T17:49:24.495Z,34.95
2024-02-27T17:51:51.093Z,36.60
2024-02-27T17:54:17.538Z,32.55
2024-02-27T17:56:44.029Z,29.33
2024-02-27T17:59:11.295Z,33.17
2024-02-27T18:01:37.951Z,36.53
2024-02-27T18:04:06.453Z,53.92
2024-02-27T18:06:32.998Z,36.63
2024-02-27T18:09:00.296Z,46.42
2024-02-27T18:11:26.777Z,42.72
2024-02-27T18:13:53.278Z,43.25
2024-02-27T18:16:19.858Z,42.35
2024-02-27T18:18:46.320Z,43.50
2024-02-27T18:21:12.776Z,46.47
2024-02-27T18:23:39.210Z,42.95
2024-02-27T18:26:05.671Z,57.45
2024-02-27T18:28:32.083Z,48.22
2024-02-27T18:30:58.992Z,43.72
2024-02-27T18:33:25.780Z,48.92
2024-02-27T18:35:56.166Z,52.40
2024-02-27T18:38:24.513Z,42.50
2024-02-27T18:40:51.381Z,42.50
2024-02-27T18:43:17.860Z,43.72
2024-02-27T18:45:46.858Z,49.55
2024-02-27T18:48:13.576Z,44.15
2024-02-27T18:50:40.985Z,46.22
2024-02-27T18:53:07.757Z,49.50
2024-02-27T18:55:34.206Z,42.08
2024-02-27T18:58:00.751Z,44.45
2024-02-27T19:00:27.401Z,42.92
2024-02-27T19:02:54.061Z,43.33
2024-02-27T19:05:20.517Z,45.88
2024-02-27T19:07:46.987Z,47.85
2024-02-27T19:10:13.721Z,43.42
2024-02-27T19:12:40.785Z,47.55
2024-02-27T19:15:08.101Z,41.35
2024-02-27T19:17:34.561Z,45.15
2024-02-27T19:20:01.050Z,46.33
2024-02-27T19:22:27.853Z,46.40
2024-02-27T19:24:54.257Z,41.78
2024-02-27T19:27:20.697Z,41.80
2024-02-27T19:29:47.120Z,48.75
2024-02-27T19:32:13.547Z,47.13
2024-02-27T19:34:40.627Z,48.47
2024-02-27T19:37:07.022Z,48.53
2024-02-27T19:39:33.530Z,44.22
2024-02-27T19:41:59.980Z,49.78
2024-02-27T19:44:26.419Z,46.30
2024-02-27T19:46:52.872Z,40.50
2024-02-27T19:49:20.341Z,43.17
2024-02-27T19:51:46.968Z,50.78
2024-02-27T19:54:13.485Z,44.78
2024-02-27T19:56:41.158Z,42.33
2024-02-27T19:59:07.772Z,46.35
2024-02-27T20:01:34.240Z,45.97
2024-02-27T20:04:00.728Z,53.38
2024-02-27T20:06:27.530Z,52.10
2024-02-27T20:08:53.979Z,49.30
2024-02-27T20:11:20.459Z,50.17
2024-02-27T20:13:47.319Z,47.58
2024-02-27T20:16:14.027Z,51.70
2024-02-27T20:18:41.453Z,54.63
2024-02-27T20:21:08.307Z,56.28
2024-02-27T20:23:34.877Z,49.20
2024-02-27T20:26:05.816Z,56.17
2024-02-27T20:28:33.165Z,56.75
2024-02-27T20:30:59.686Z,55.83
2024-02-27T20:33:27.803Z,60.67
2024-02-27T20:35:54.624Z,51.92
2024-02-27T20:38:21.905Z,51.78
2024-02-27T20:40:48.416Z,49.22
2024-02-27T20:43:14.929Z,46.60
2024-02-27T20:45:42.059Z,52.30
2024-02-27T20:48:10.228Z,54.30
2024-02-27T20:50:37.434Z,50.53
2024-02-27T20:53:04.156Z,53.92
2024-02-27T20:55:30.811Z,57.33
2024-02-27T20:57:58.318Z,49.33
2024-02-27T21:00:24.986Z,55.47
2024-02-27T21:02:52.047Z,52.13
2024-02-27T21:05:18.542Z,56.05
2024-02-27T21:07:48.078Z,49.15
2024-02-27T21:10:14.706Z,57.53
2024-02-27T21:12:41.300Z,60.90
2024-02-27T21:15:08.921Z,59.00
2024-02-27T21:17:35.484Z,48.75
2024-02-27T21:20:02.701Z,53.53
2024-02-27T21:22:29.125Z,47.05
2024-02-27T21:24:55.634Z,46.17
2024-02-27T21:27:22.160Z,50.97
2024-02-27T21:29:48.574Z,51.55
2024-02-27T21:32:15.822Z,49.17
2024-02-27T21:34:42.258Z,49.97
2024-02-27T21:37:08.695Z,45.35
2024-02-27T21:39:35.141Z,61.28
2024-02-27T21:42:02.387Z,50.15
2024-02-27T21:44:28.857Z,57.58
2024-02-27T21:46:55.290Z,56.45
2024-02-27T21:49:21.735Z,54.30
2024-02-27T21:51:56.831Z,55.45
2024-02-27T21:54:29.294Z,48.40
2024-02-27T21:56:55.738Z,52.92
2024-02-27T21:59:22.149Z,46.33
2024-02-27T22:01:49.852Z,57.15
2024-02-27T22:04:16.431Z,57.97
2024-02-27T22:06:42.900Z,60.65
2024-02-27T22:09:11.229Z,63.67
2024-02-27T22:11:38.082Z,70.70
2024-02-27T22:14:04.736Z,68.85
2024-02-27T22:16:31.308Z,68.88
2024-02-27T22:18:57.864Z,64.13
2024-02-27T22:21:24.425Z,66.50
2024-02-27T22:23:50.892Z,63.90
2024-02-27T22:26:17.348Z,65.50
2024-02-27T22:28:43.778Z,73.88
2024-02-27T22:31:10.206Z,63.90
2024-02-27T22:33:36.675Z,64.20
2024-02-27T22:36:03.234Z,57.50
2024-02-27T22:38:29.666Z,63.47
2024-02-27T22:40:56.333Z,63.17
2024-02-27T22:43:22.842Z,61.90
2024-02-27T22:45:49.878Z,66.22
2024-02-27T22:48:16.554Z,66.78
2024-02-27T22:50:44.164Z,66.10
2024-02-27T22:53:10.802Z,57.08
2024-02-27T22:55:37.962Z,63.25
2024-02-27T22:58:05.431Z,65.28
2024-02-27T23:00:32.116Z,59.20
2024-02-27T23:02:59.187Z,66.85
2024-02-27T23:05:25.719Z,53.22
2024-02-27T23:07:53.668Z,58.28
2024-02-27T23:10:20.880Z,64.78
2024-02-27T23:12:47.469Z,62.00
2024-02-27T23:15:14.833Z,64.22
2024-02-27T23:17:41.341Z,63.28
2024-02-27T23:20:09.787Z,64.95
2024-02-27T23:22:36.241Z,66.90
2024-02-27T23:25:03.120Z,68.50
2024-02-27T23:27:29.578Z,61.78
2024-02-27T23:29:56.033Z,67.60
2024-02-27T23:32:22.438Z,58.92
2024-02-27T23:34:48.853Z,63.00
2024-02-27T23:37:15.253Z,58.97
2024-02-27T23:39:41.869Z,56.55
2024-02-27T23:42:08.325Z,69.00
2024-02-27T23:44:34.779Z,57.72
2024-02-27T23:47:01.278Z,80.20
2024-02-27T23:49:27.691Z,57.50
2024-02-27T23:51:54.125Z,57.42
2024-02-27T23:54:20.633Z,46.22
2024-02-27T23:56:48.807Z,62.05
2024-02-27T23:59:18.471Z,57.58
